createdAt,value
2022-08-03T00:00:56.652Z,100693.40
2022-08-03T00:06:03.736Z,100697.40
2022-08-03T00:11:08.380Z,100692.00
2022-08-03T00:16:11.513Z,100696.20
2022-08-03T00:21:14.628Z,100692.00
2022-08-03T00:26:18.951Z,100694.20
2022-08-03T00:31:29.692Z,100699.00
2022-08-03T00:36:45.042Z,100698.20
2022-08-03T00:41:48.998Z,100698.20
2022-08-03T00:46:52.084Z,100694.40
2022-08-03T00:51:55.665Z,100692.40
2022-08-03T00:57:00.014Z,100696.00
2022-08-03T01:02:03.722Z,100690.80
2022-08-03T01:07:44.201Z,100692.80
2022-08-03T01:13:59.882Z,100691.80
2022-08-03T01:19:10.947Z,100692.20
2022-08-03T01:24:48.230Z,100688.00
2022-08-03T01:30:05.531Z,100681.20
2022-08-03T01:35:17.978Z,100676.40
2022-08-03T01:40:27.095Z,100679.00
2022-08-03T01:45:34.035Z,100672.00
2022-08-03T01:50:38.510Z,100668.20
2022-08-03T01:55:46.712Z,100676.00
2022-08-03T02:00:52.414Z,100678.00
2022-08-03T02:06:58.408Z,100666.60
2022-08-03T02:11:22.126Z,100666.00
2022-08-03T02:16:27.812Z,100663.60
2022-08-03T02:21:56.766Z,100653.40
2022-08-03T02:27:02.169Z,100649.60
2022-08-03T02:32:06.703Z,100654.20
2022-08-03T02:37:12.771Z,100656.40
2022-08-03T02:42:21.020Z,100653.40
2022-08-03T02:47:29.126Z,100653.60
2022-08-03T02:52:55.273Z,100652.00
2022-08-03T02:58:01.411Z,100654.40
2022-08-03T03:03:06.613Z,100653.00
2022-08-03T03:08:18.068Z,100644.60
2022-08-03T03:13:24.947Z,100650.40
2022-08-03T03:18:31.833Z,100644.80
2022-08-03T03:23:39.026Z,100650.20
2022-08-03T03:28:42.923Z,100647.00
2022-08-03T03:33:46.629Z,100646.00
2022-08-03T03:38:49.845Z,100641.00
2022-08-03T03:43:57.099Z,100644.00
2022-08-03T03:49:00.561Z,100648.00
2022-08-03T03:54:07.269Z,100651.60
2022-08-03T03:59:10.535Z,100660.60
2022-08-03T04:04:32.067Z,100660.60
2022-08-03T04:10:07.852Z,100667.60
2022-08-03T04:15:22.874Z,100671.40
2022-08-03T04:20:32.158Z,100675.00
2022-08-03T04:25:40.255Z,100678.80
2022-08-03T04:30:49.126Z,100685.00
2022-08-03T04:36:02.001Z,100694.80
2022-08-03T04:41:08.659Z,100695.40
2022-08-03T04:46:12.836Z,100697.00
2022-08-03T04:51:16.989Z,100700.80
2022-08-03T04:56:20.336Z,100698.40
2022-08-03T05:01:23.633Z,100702.00
2022-08-03T05:06:27.062Z,100702.40
2022-08-03T05:11:30.348Z,100707.00
2022-08-03T05:16:33.483Z,100710.60
2022-08-03T05:21:41.673Z,100712.60
2022-08-03T05:26:55.511Z,100711.20
2022-08-03T05:31:58.697Z,100719.60
2022-08-03T05:37:01.787Z,100720.40
2022-08-03T05:42:05.045Z,100714.00
2022-08-03T05:47:08.479Z,100715.40
2022-08-03T05:52:12.647Z,100713.80
2022-08-03T05:57:17.932Z,100723.00
2022-08-03T06:02:21.045Z,100721.80
2022-08-03T06:07:24.304Z,100723.60
2022-08-03T06:12:27.509Z,100725.80
2022-08-03T06:17:37.231Z,100730.60
2022-08-03T06:22:50.505Z,100742.00
2022-08-03T06:27:54.929Z,100740.20
2022-08-03T06:32:58.010Z,100745.80
2022-08-03T06:38:01.130Z,100748.20
2022-08-03T06:43:04.229Z,100739.80
2022-08-03T06:48:11.478Z,100745.20
2022-08-03T06:53:21.379Z,100746.20
2022-08-03T06:58:24.801Z,100745.60
2022-08-03T07:03:28.038Z,100747.00
2022-08-03T07:08:33.338Z,100752.00
2022-08-03T07:13:37.576Z,100761.60
2022-08-03T07:18:41.250Z,100759.80
2022-08-03T07:23:44.376Z,100761.60
2022-08-03T07:28:47.449Z,100763.60
2022-08-03T07:33:50.960Z,100762.60
2022-08-03T07:38:54.621Z,100757.60
2022-08-03T07:43:57.998Z,100758.00
2022-08-03T07:49:01.989Z,100761.40
2022-08-03T07:54:05.719Z,100759.80
2022-08-03T07:59:09.082Z,100764.00
2022-08-03T08:04:12.510Z,100763.40
2022-08-03T08:09:16.017Z,100763.60
2022-08-03T08:14:19.228Z,100763.60
2022-08-03T08:19:22.711Z,100773.00
2022-08-03T08:24:31.118Z,100768.80
2022-08-03T08:29:35.386Z,100776.60
2022-08-03T08:34:51.231Z,100774.60
2022-08-03T08:40:00.235Z,100772.20
2022-08-03T08:45:08.558Z,100775.40
2022-08-03T08:50:27.085Z,100777.60
2022-08-03T08:55:58.699Z,100775.80
2022-08-03T09:00:57.705Z,100778.00
2022-08-03T09:06:02.983Z,100778.80
2022-08-03T09:11:08.262Z,100781.80
2022-08-03T09:16:23.916Z,100781.20
2022-08-03T09:21:33.691Z,100778.80
2022-08-03T09:26:38.656Z,100780.20
2022-08-03T09:31:46.726Z,100779.80
2022-08-03T09:36:52.627Z,100777.60
2022-08-03T09:42:15.315Z,100777.80
2022-08-03T09:47:34.676Z,100778.80
2022-08-03T09:52:50.236Z,100775.60
2022-08-03T09:58:10.789Z,100777.00
2022-08-03T10:03:14.156Z,100774.20
2022-08-03T10:08:20.251Z,100769.60
2022-08-03T10:13:23.986Z,100771.60
2022-08-03T10:18:27.386Z,100768.60
2022-08-03T10:23:35.994Z,100771.20
2022-08-03T10:28:46.221Z,100770.20
2022-08-03T10:33:53.461Z,100767.20
2022-08-03T10:38:57.726Z,100762.80
2022-08-03T10:44:10.777Z,100759.20
2022-08-03T10:49:34.016Z,100760.00
2022-08-03T10:55:09.190Z,100762.60
2022-08-03T11:00:24.140Z,100756.20
2022-08-03T11:05:30.445Z,100756.40
2022-08-03T11:10:33.713Z,100756.00
2022-08-03T11:15:37.929Z,100752.80
2022-08-03T11:20:57.160Z,100745.80
2022-08-03T11:26:22.888Z,100755.60
2022-08-03T11:31:48.899Z,100752.80
2022-08-03T11:37:24.621Z,100749.00
2022-08-03T11:42:29.352Z,100754.40
2022-08-03T11:47:50.714Z,100753.00
2022-08-03T11:52:55.068Z,100747.20
2022-08-03T11:58:58.163Z,100743.60
2022-08-03T12:03:24.323Z,100745.40
2022-08-03T12:08:29.236Z,100751.60
2022-08-03T12:14:45.644Z,100743.20
2022-08-03T12:19:10.888Z,100733.40
2022-08-03T12:24:14.082Z,100729.00
2022-08-03T12:29:26.065Z,100724.60
2022-08-03T12:34:51.245Z,100726.00
2022-08-03T12:40:09.516Z,100724.20
2022-08-03T12:45:27.617Z,100726.60
2022-08-03T12:50:37.551Z,100721.20
2022-08-03T12:56:04.443Z,100718.80
2022-08-03T13:01:10.286Z,100719.20
2022-08-03T13:06:23.913Z,100719.20
2022-08-03T13:11:57.225Z,100710.40
2022-08-03T13:16:55.119Z,100707.20
2022-08-03T13:22:04.129Z,100714.00
2022-08-03T13:28:01.000Z,100709.80
2022-08-03T13:32:37.738Z,100704.40
2022-08-03T13:37:40.848Z,100707.80
2022-08-03T13:42:44.104Z,100704.60
2022-08-03T13:47:47.270Z,100710.20
2022-08-03T13:52:51.496Z,100703.40
2022-08-03T13:58:04.846Z,100697.40
2022-08-03T14:03:14.287Z,100695.60
2022-08-03T14:08:20.366Z,100689.20
2022-08-03T14:13:25.649Z,100684.60
2022-08-03T14:18:33.606Z,100682.00
2022-08-03T14:23:38.466Z,100674.80
2022-08-03T14:28:41.785Z,100671.60
2022-08-03T14:33:45.018Z,100665.80
2022-08-03T14:38:48.265Z,100658.40
2022-08-03T14:44:02.212Z,100655.80
2022-08-03T14:50:37.373Z,100654.80
2022-08-03T14:54:31.142Z,100657.20
2022-08-03T14:59:55.855Z,100655.40
2022-08-03T15:04:57.451Z,100653.80
2022-08-03T15:10:40.334Z,100655.20
2022-08-03T15:15:51.925Z,100654.00
2022-08-03T15:20:55.516Z,100651.40
2022-08-03T15:26:03.894Z,100651.80
2022-08-03T15:31:24.769Z,100650.80
2022-08-03T15:36:27.961Z,100647.20
2022-08-03T15:41:31.443Z,100642.20
2022-08-03T15:46:34.839Z,100639.40
2022-08-03T15:51:38.526Z,100633.80
2022-08-03T15:56:45.422Z,100634.60
2022-08-03T16:01:49.414Z,100632.00
2022-08-03T16:06:52.874Z,100628.20
2022-08-03T16:11:56.123Z,100626.60
2022-08-03T16:16:59.275Z,100628.00
2022-08-03T16:22:02.348Z,100628.40
2022-08-03T16:27:06.642Z,100631.60
2022-08-03T16:32:20.685Z,100634.60
2022-08-03T16:37:38.039Z,100625.60
2022-08-03T16:42:42.270Z,100626.60
2022-08-03T16:47:45.318Z,100619.60
2022-08-03T16:52:48.727Z,100622.20
2022-08-03T16:57:59.364Z,100625.40
2022-08-03T17:03:12.816Z,100626.40
2022-08-03T17:08:26.537Z,100630.20
2022-08-03T17:13:39.853Z,100630.00
2022-08-03T17:18:57.687Z,100632.80
2022-08-03T17:24:19.671Z,100636.00
2022-08-03T17:29:26.160Z,100636.60
2022-08-03T17:34:33.380Z,100645.80
2022-08-03T17:45:03.511Z,100649.80
2022-08-03T17:50:09.745Z,100652.20
2022-08-03T17:55:56.535Z,100654.40
2022-08-03T18:02:00.164Z,100660.20
2022-08-03T18:06:55.981Z,100666.60
2022-08-03T18:12:07.143Z,100662.00
2022-08-03T18:17:19.882Z,100672.00
2022-08-03T18:22:27.114Z,100669.20
2022-08-03T18:27:42.387Z,100676.60
2022-08-03T18:33:01.022Z,100681.00
2022-08-03T18:38:16.787Z,100684.40
2022-08-03T18:43:21.702Z,100685.00
2022-08-03T18:49:33.465Z,100692.80
2022-08-03T18:55:01.027Z,100691.00
2022-08-03T19:00:23.926Z,100696.20
2022-08-03T19:05:57.718Z,100696.80
2022-08-03T19:11:03.621Z,100700.80
2022-08-03T19:16:18.966Z,100695.00
2022-08-03T19:21:22.951Z,100689.60
2022-08-03T19:26:30.144Z,100685.40
2022-08-03T19:31:38.876Z,100689.40
2022-08-03T19:36:43.912Z,100692.60
2022-08-03T19:41:52.003Z,100688.20
2022-08-03T19:47:42.520Z,100693.80
2022-08-03T19:52:48.355Z,100689.80
2022-08-03T19:57:57.208Z,100692.40
2022-08-03T20:03:01.258Z,100693.40
2022-08-03T20:08:06.939Z,100702.20
2022-08-03T20:13:19.264Z,100704.40
2022-08-03T20:18:22.915Z,100705.20
2022-08-03T20:23:37.225Z,100702.60
2022-08-03T20:28:52.297Z,100705.00
2022-08-03T20:33:55.433Z,100708.80
2022-08-03T20:38:59.164Z,100705.60
2022-08-03T20:44:04.715Z,100702.80
2022-08-03T20:49:08.326Z,100703.80
2022-08-03T20:54:29.946Z,100706.00
2022-08-03T20:59:50.407Z,100712.20
2022-08-03T21:04:54.873Z,100706.20
2022-08-03T21:10:04.185Z,100710.20
2022-08-03T21:16:02.560Z,100712.80
2022-08-03T21:20:44.671Z,100712.20
2022-08-03T21:25:50.891Z,100716.40
2022-08-03T21:30:55.705Z,100714.20
2022-08-03T21:35:59.136Z,100710.20
2022-08-03T21:41:04.042Z,100715.60
2022-08-03T21:46:08.503Z,100727.80
2022-08-03T21:51:16.147Z,100718.40
2022-08-03T21:56:22.468Z,100717.80
2022-08-03T22:01:28.451Z,100714.40
2022-08-03T22:06:42.509Z,100711.20
2022-08-03T22:11:48.080Z,100710.80
2022-08-03T22:16:51.453Z,100710.80
2022-08-03T22:21:54.817Z,100715.40
2022-08-03T22:27:18.585Z,100716.20
2022-08-03T22:32:21.657Z,100714.20
2022-08-03T22:37:29.047Z,100713.80
2022-08-03T22:42:35.467Z,100714.00
2022-08-03T22:47:41.317Z,100714.80
2022-08-03T22:52:45.683Z,100717.40
2022-08-03T22:57:50.980Z,100720.40
2022-08-03T23:03:03.385Z,100718.60
2022-08-03T23:08:09.948Z,100714.20
2022-08-03T23:13:16.193Z,100711.60
2022-08-03T23:18:22.506Z,100708.00
2022-08-03T23:23:26.687Z,100712.20
2022-08-03T23:28:35.304Z,100705.60
2022-08-03T23:33:40.965Z,100703.80
2022-08-03T23:38:45.161Z,100706.20
2022-08-03T23:43:51.873Z,100706.20
2022-08-03T23:49:00.456Z,100712.40
2022-08-03T23:54:28.297Z,100709.80
